createdAt,value
2023-08-12T00:00:34.718Z,70.51
2023-08-12T00:01:37.644Z,70.46
2023-08-12T00:02:42.080Z,70.44
2023-08-12T00:03:45.083Z,70.51
2023-08-12T00:04:49.369Z,70.47
2023-08-12T00:05:52.304Z,70.52
2023-08-12T00:06:55.331Z,70.53
2023-08-12T00:07:58.297Z,70.55
2023-08-12T00:09:01.135Z,70.59
2023-08-12T00:10:06.512Z,70.58
2023-08-12T00:11:09.384Z,70.54
2023-08-12T00:12:12.230Z,70.57
2023-08-12T00:13:17.418Z,70.56
2023-08-12T00:14:20.510Z,70.51
2023-08-12T00:15:23.521Z,70.50
2023-08-12T00:16:26.447Z,70.64
2023-08-12T00:17:29.610Z,70.67
2023-08-12T00:18:32.716Z,70.64
2023-08-12T00:19:35.647Z,70.57
2023-08-12T00:20:40.332Z,70.52
2023-08-12T00:21:43.321Z,70.49
2023-08-12T00:22:46.778Z,70.70
2023-08-12T00:23:51.930Z,70.70
2023-08-12T00:24:54.953Z,70.71
2023-08-12T00:26:00.654Z,70.60
2023-08-12T00:27:03.577Z,70.78
2023-08-12T00:28:06.865Z,70.83
2023-08-12T00:29:09.847Z,70.92
2023-08-12T00:30:12.970Z,71.11
2023-08-12T00:31:15.859Z,71.43
2023-08-12T00:32:18.700Z,71.26
2023-08-12T00:33:21.621Z,71.25
2023-08-12T00:34:24.555Z,71.27
2023-08-12T00:35:27.421Z,71.40
2023-08-12T00:36:30.276Z,71.33
2023-08-12T00:37:33.287Z,71.40
2023-08-12T00:38:36.161Z,71.65
2023-08-12T00:39:39.127Z,71.62
2023-08-12T00:40:42.017Z,71.84
2023-08-12T00:41:44.882Z,71.63
2023-08-12T00:42:49.320Z,71.62
2023-08-12T00:43:52.376Z,71.50
2023-08-12T00:44:55.318Z,71.47
2023-08-12T00:45:58.382Z,71.70
2023-08-12T00:47:01.941Z,71.70
2023-08-12T00:48:06.468Z,71.57
2023-08-12T00:49:09.745Z,71.44
2023-08-12T00:50:16.085Z,71.44
2023-08-12T00:51:19.608Z,71.43
2023-08-12T00:52:22.518Z,71.46
2023-08-12T00:53:25.602Z,71.41
2023-08-12T00:54:29.489Z,71.41
2023-08-12T00:55:32.389Z,71.49
2023-08-12T00:56:36.618Z,71.41
2023-08-12T00:57:39.787Z,71.30
2023-08-12T00:58:43.531Z,71.18
2023-08-12T00:59:46.973Z,71.26
2023-08-12T01:00:49.987Z,71.21
2023-08-12T01:01:52.980Z,71.18
2023-08-12T01:02:56.779Z,71.29
2023-08-12T01:04:00.022Z,71.29
2023-08-12T01:05:02.946Z,71.22
2023-08-12T01:06:06.041Z,71.23
2023-08-12T01:07:09.591Z,71.19
2023-08-12T01:08:12.785Z,71.27
2023-08-12T01:09:15.827Z,71.24
2023-08-12T01:10:19.188Z,71.37
2023-08-12T01:11:28.574Z,71.45
2023-08-12T01:12:52.104Z,71.50
2023-08-12T01:14:02.258Z,71.50
2023-08-12T01:15:13.171Z,71.53
2023-08-12T01:16:19.843Z,71.54
2023-08-12T01:17:23.382Z,71.65
2023-08-12T01:18:27.167Z,71.59
2023-08-12T01:19:40.946Z,71.62
2023-08-12T01:20:44.739Z,71.70
2023-08-12T01:21:49.168Z,71.74
2023-08-12T01:23:05.289Z,71.69
2023-08-12T01:24:08.536Z,71.67
2023-08-12T01:25:11.639Z,71.70
2023-08-12T01:26:14.524Z,71.78
2023-08-12T01:27:17.566Z,71.80
2023-08-12T01:28:20.485Z,71.92
2023-08-12T01:29:23.386Z,71.91
2023-08-12T01:30:26.464Z,72.14
2023-08-12T01:31:45.877Z,72.15
2023-08-12T01:33:00.767Z,72.07
2023-08-12T01:34:42.555Z,72.09
2023-08-12T01:35:50.972Z,72.11
2023-08-12T01:36:58.221Z,72.37
2023-08-12T01:38:06.436Z,72.30
2023-08-12T01:39:12.961Z,72.35
2023-08-12T01:40:18.302Z,72.36
2023-08-12T01:41:24.882Z,72.36
2023-08-12T01:42:28.884Z,72.52
2023-08-12T01:43:32.132Z,72.57
2023-08-12T01:44:35.058Z,72.49
2023-08-12T01:45:38.269Z,72.35
2023-08-12T01:46:41.145Z,72.36
2023-08-12T01:47:47.346Z,72.56
2023-08-12T01:48:50.278Z,72.49
2023-08-12T01:49:53.205Z,72.61
2023-08-12T01:50:56.137Z,72.67
2023-08-12T01:51:59.280Z,72.63
2023-08-12T01:53:02.324Z,72.56
2023-08-12T01:54:05.425Z,72.56
2023-08-12T01:55:08.651Z,72.60
2023-08-12T01:56:11.561Z,72.67
2023-08-12T01:57:14.800Z,72.90
2023-08-12T01:58:17.964Z,72.90
2023-08-12T01:59:20.906Z,72.78
2023-08-12T02:00:23.787Z,72.65
2023-08-12T02:01:26.685Z,72.53
2023-08-12T02:02:29.828Z,72.38
2023-08-12T02:03:32.966Z,72.27
2023-08-12T02:04:36.290Z,72.28
2023-08-12T02:05:39.639Z,72.28
2023-08-12T02:06:42.514Z,72.19
2023-08-12T02:07:45.469Z,71.96
2023-08-12T02:08:48.316Z,71.28
2023-08-12T02:09:51.287Z,71.17
2023-08-12T02:10:54.238Z,71.02
2023-08-12T02:11:57.158Z,71.02
2023-08-12T02:13:00.083Z,71.18
2023-08-12T02:14:02.957Z,71.25
2023-08-12T02:15:06.190Z,71.41
2023-08-12T02:16:09.075Z,71.82
2023-08-12T02:17:13.230Z,71.88
2023-08-12T02:18:16.305Z,72.09
2023-08-12T02:19:19.238Z,72.16
2023-08-12T02:20:22.085Z,72.09
2023-08-12T02:21:25.017Z,71.95
2023-08-12T02:22:27.901Z,72.14
2023-08-12T02:23:30.754Z,72.43
2023-08-12T02:24:33.718Z,72.52
2023-08-12T02:25:36.733Z,72.46
2023-08-12T02:26:40.174Z,72.22
2023-08-12T02:27:43.535Z,72.20
2023-08-12T02:28:46.355Z,72.39
2023-08-12T02:29:49.261Z,72.30
2023-08-12T02:30:52.129Z,72.25
2023-08-12T02:31:54.995Z,72.29
2023-08-12T02:32:58.016Z,72.30
2023-08-12T02:34:00.979Z,72.34
2023-08-12T02:35:03.850Z,72.64
2023-08-12T02:36:07.231Z,72.76
2023-08-12T02:37:10.470Z,72.74
2023-08-12T02:38:13.750Z,72.48
2023-08-12T02:39:16.576Z,72.38
2023-08-12T02:40:19.764Z,72.62
2023-08-12T02:41:22.668Z,72.14
2023-08-12T02:42:25.602Z,72.17
2023-08-12T02:43:28.539Z,72.27
2023-08-12T02:44:31.434Z,72.26
2023-08-12T02:45:34.560Z,72.33
2023-08-12T02:46:37.460Z,72.39
2023-08-12T02:47:40.375Z,72.43
2023-08-12T02:48:43.653Z,72.41
2023-08-12T02:49:46.614Z,72.41
2023-08-12T02:50:49.510Z,72.49
2023-08-12T02:51:52.483Z,72.48
2023-08-12T02:52:55.414Z,72.28
2023-08-12T02:53:58.386Z,72.21
2023-08-12T02:55:01.290Z,72.13
2023-08-12T02:56:04.320Z,72.15
2023-08-12T02:57:07.303Z,72.16
2023-08-12T02:58:10.202Z,72.00
2023-08-12T02:59:13.159Z,72.07
2023-08-12T03:00:16.677Z,72.10
2023-08-12T03:01:19.777Z,72.29
2023-08-12T03:02:22.687Z,72.20
2023-08-12T03:03:25.665Z,72.05
2023-08-12T03:04:28.536Z,72.00
2023-08-12T03:05:31.458Z,72.04
2023-08-12T03:06:34.378Z,71.93
2023-08-12T03:07:37.277Z,71.62
2023-08-12T03:08:40.180Z,71.65
2023-08-12T03:09:43.023Z,71.75
2023-08-12T03:10:47.039Z,71.75
2023-08-12T03:11:49.926Z,71.77
2023-08-12T03:12:53.579Z,71.67
2023-08-12T03:13:56.521Z,71.59
2023-08-12T03:14:59.552Z,71.59
2023-08-12T03:16:02.527Z,71.54
2023-08-12T03:17:06.073Z,71.63
2023-08-12T03:18:08.944Z,71.72
2023-08-12T03:19:11.866Z,71.70
2023-08-12T03:20:14.860Z,71.66
2023-08-12T03:21:17.820Z,71.55
2023-08-12T03:22:20.756Z,71.53
2023-08-12T03:23:23.684Z,71.56
2023-08-12T03:24:26.715Z,71.68
2023-08-12T03:25:29.642Z,71.57
2023-08-12T03:26:32.536Z,71.55
2023-08-12T03:27:35.633Z,71.63
2023-08-12T03:28:38.526Z,72.25
2023-08-12T03:29:41.497Z,72.21
2023-08-12T03:30:45.270Z,72.27
2023-08-12T03:31:48.149Z,72.30
2023-08-12T03:32:51.477Z,72.50
2023-08-12T03:33:54.451Z,72.41
2023-08-12T03:34:57.414Z,72.52
2023-08-12T03:36:00.404Z,72.73
2023-08-12T03:37:03.705Z,72.77
2023-08-12T03:38:06.595Z,72.89
2023-08-12T03:39:09.474Z,73.24
2023-08-12T03:40:12.883Z,73.07
2023-08-12T03:41:15.720Z,73.00
2023-08-12T03:42:19.223Z,73.00
2023-08-12T03:43:22.109Z,72.93
2023-08-12T03:44:25.125Z,72.92
2023-08-12T03:45:28.276Z,72.84
2023-08-12T03:46:31.353Z,72.85
2023-08-12T03:47:34.290Z,72.85
2023-08-12T03:48:37.218Z,72.79
2023-08-12T03:49:40.237Z,72.87
2023-08-12T03:50:44.755Z,72.78
2023-08-12T03:51:47.689Z,72.70
2023-08-12T03:52:50.556Z,72.51
2023-08-12T03:53:53.568Z,72.33
2023-08-12T03:54:56.535Z,72.20
2023-08-12T03:55:59.467Z,72.23
2023-08-12T03:57:02.563Z,72.18
2023-08-12T03:58:05.674Z,72.00
2023-08-12T03:59:08.554Z,71.91
2023-08-12T04:00:11.869Z,71.78
2023-08-12T04:01:14.830Z,71.68
2023-08-12T04:02:17.909Z,71.70
2023-08-12T04:03:20.889Z,71.71
2023-08-12T04:04:23.867Z,71.91
2023-08-12T04:05:26.801Z,71.86
2023-08-12T04:06:29.668Z,71.85
2023-08-12T04:07:34.788Z,71.84
2023-08-12T04:08:37.837Z,71.86
2023-08-12T04:09:40.950Z,71.95
2023-08-12T04:10:47.511Z,71.96
2023-08-12T04:11:50.393Z,72.06
2023-08-12T04:12:53.302Z,72.06
2023-08-12T04:13:56.214Z,72.11
2023-08-12T04:14:59.022Z,72.20
2023-08-12T04:16:01.845Z,72.21
2023-08-12T04:17:05.925Z,72.27
2023-08-12T04:18:09.494Z,72.44
2023-08-12T04:19:12.382Z,72.51
2023-08-12T04:20:15.210Z,72.67
2023-08-12T04:21:18.098Z,72.79
2023-08-12T04:22:21.076Z,72.75
2023-08-12T04:23:24.056Z,72.80
2023-08-12T04:24:27.070Z,72.85
2023-08-12T04:25:29.990Z,72.88
2023-08-12T04:26:33.041Z,72.86
2023-08-12T04:27:36.048Z,72.97
2023-08-12T04:28:38.977Z,73.01
2023-08-12T04:29:42.038Z,72.97
2023-08-12T04:30:46.054Z,73.04
2023-08-12T04:31:48.973Z,73.02
2023-08-12T04:32:52.090Z,73.03
2023-08-12T04:33:55.281Z,73.13
2023-08-12T04:34:58.170Z,73.08
2023-08-12T04:36:01.126Z,73.07
2023-08-12T04:37:04.237Z,73.00
2023-08-12T04:38:07.231Z,73.09
2023-08-12T04:39:10.135Z,73.10
2023-08-12T04:40:13.768Z,73.12
2023-08-12T04:41:16.814Z,73.21
2023-08-12T04:42:19.795Z,73.19
2023-08-12T04:43:23.035Z,73.13
2023-08-12T04:44:25.902Z,73.30
2023-08-12T04:45:28.723Z,73.37
2023-08-12T04:46:31.686Z,73.32
2023-08-12T04:47:34.679Z,73.25
2023-08-12T04:48:37.658Z,73.44
2023-08-12T04:49:40.624Z,73.47
2023-08-12T04:50:45.124Z,73.72
2023-08-12T04:51:48.768Z,73.66
2023-08-12T04:52:51.683Z,73.65
2023-08-12T04:53:54.693Z,73.87
2023-08-12T04:54:57.670Z,74.54
2023-08-12T04:56:00.763Z,74.24
2023-08-12T04:57:03.676Z,74.00
2023-08-12T04:58:07.064Z,73.81
2023-08-12T04:59:10.786Z,73.73
2023-08-12T05:00:14.674Z,73.65
2023-08-12T05:01:17.590Z,73.77
2023-08-12T05:02:23.772Z,73.66
2023-08-12T05:03:27.154Z,73.51
2023-08-12T05:04:30.040Z,73.32
2023-08-12T05:05:32.877Z,73.41
2023-08-12T05:06:35.829Z,73.47
2023-08-12T05:07:40.952Z,73.46
2023-08-12T05:08:44.130Z,73.51
2023-08-12T05:09:47.127Z,73.45
2023-08-12T05:10:51.050Z,73.31
2023-08-12T05:11:53.980Z,73.27
2023-08-12T05:13:00.114Z,73.40
2023-08-12T05:14:03.030Z,73.39
2023-08-12T05:15:06.214Z,73.31
2023-08-12T05:16:09.158Z,73.29
2023-08-12T05:17:12.140Z,73.23
2023-08-12T05:18:15.712Z,73.13
2023-08-12T05:19:18.649Z,73.52
2023-08-12T05:20:21.552Z,73.54
2023-08-12T05:21:25.222Z,73.48
2023-08-12T05:22:28.138Z,73.22
2023-08-12T05:23:31.030Z,72.99
2023-08-12T05:24:33.941Z,72.86
2023-08-12T05:25:37.053Z,72.77
2023-08-12T05:26:39.936Z,72.70
2023-08-12T05:27:43.862Z,72.80
2023-08-12T05:28:46.689Z,72.77
2023-08-12T05:29:49.613Z,72.84
2023-08-12T05:30:52.478Z,72.72
2023-08-12T05:31:55.924Z,72.80
2023-08-12T05:32:58.826Z,73.18
2023-08-12T05:34:02.601Z,72.99
2023-08-12T05:35:05.678Z,72.71
2023-08-12T05:36:08.564Z,72.48
2023-08-12T05:37:11.528Z,72.27
2023-08-12T05:38:14.406Z,72.12
2023-08-12T05:39:20.564Z,71.98
2023-08-12T05:40:23.387Z,71.88
2023-08-12T05:41:26.403Z,71.78
2023-08-12T05:42:29.329Z,71.63
2023-08-12T05:43:32.332Z,71.48
2023-08-12T05:44:35.152Z,71.32
2023-08-12T05:45:38.133Z,71.19
2023-08-12T05:46:41.124Z,71.07
2023-08-12T05:47:44.054Z,70.98
2023-08-12T05:48:46.950Z,70.88
2023-08-12T05:49:49.792Z,70.85
2023-08-12T05:50:52.693Z,70.81
2023-08-12T05:51:55.596Z,70.69
2023-08-12T05:52:58.544Z,70.68
2023-08-12T05:54:01.455Z,70.65
2023-08-12T05:55:04.595Z,70.72
2023-08-12T05:56:07.622Z,70.87
2023-08-12T05:57:10.489Z,70.86
2023-08-12T05:58:13.331Z,70.82
2023-08-12T05:59:16.297Z,70.72
2023-08-12T06:00:19.209Z,70.62
2023-08-12T06:01:22.196Z,70.56
2023-08-12T06:02:25.245Z,70.56
2023-08-12T06:03:28.151Z,70.56
2023-08-12T06:04:31.085Z,70.65
2023-08-12T06:05:34.155Z,70.73
2023-08-12T06:06:36.975Z,70.69
2023-08-12T06:07:39.856Z,69.57
2023-08-12T06:08:43.114Z,69.34
2023-08-12T06:09:46.028Z,69.29
2023-08-12T06:10:48.990Z,69.74
2023-08-12T06:11:51.858Z,69.81
2023-08-12T06:12:54.749Z,69.71
2023-08-12T06:13:57.672Z,69.77
2023-08-12T06:15:00.712Z,69.65
2023-08-12T06:16:03.759Z,70.03
2023-08-12T06:17:06.733Z,69.57
2023-08-12T06:18:09.706Z,69.53
2023-08-12T06:19:13.537Z,69.30
2023-08-12T06:20:16.595Z,68.04
2023-08-12T06:21:19.498Z,68.55
2023-08-12T06:22:22.490Z,68.43
2023-08-12T06:23:27.702Z,66.45
2023-08-12T06:24:30.848Z,66.31
2023-08-12T06:25:33.943Z,66.82
2023-08-12T06:26:36.854Z,66.23
2023-08-12T06:27:40.037Z,66.92
2023-08-12T06:28:42.929Z,65.75
2023-08-12T06:29:45.759Z,65.78
2023-08-12T06:30:50.525Z,65.37
2023-08-12T06:31:55.040Z,65.15
2023-08-12T06:32:59.346Z,65.06
2023-08-12T06:34:03.114Z,64.72
2023-08-12T06:35:06.892Z,64.16
2023-08-12T06:36:09.860Z,63.94
2023-08-12T06:37:12.731Z,63.45
2023-08-12T06:38:16.028Z,60.13
2023-08-12T06:39:18.890Z,59.80
2023-08-12T06:40:21.999Z,60.04
2023-08-12T06:41:24.969Z,60.35
2023-08-12T06:42:27.937Z,60.53
2023-08-12T06:43:30.838Z,59.44
2023-08-12T06:44:33.735Z,58.69
2023-08-12T06:45:37.198Z,58.47
2023-08-12T06:46:40.112Z,58.71
2023-08-12T06:47:42.946Z,59.70
2023-08-12T06:48:45.866Z,60.46
2023-08-12T06:49:48.924Z,60.37
2023-08-12T06:50:58.575Z,61.09
2023-08-12T06:52:01.534Z,61.24
2023-08-12T06:53:04.624Z,61.83
2023-08-12T06:54:07.625Z,62.77
2023-08-12T06:55:10.742Z,62.60
2023-08-12T06:56:13.663Z,62.87
2023-08-12T06:57:16.675Z,62.94
2023-08-12T06:58:19.727Z,63.30
2023-08-12T06:59:22.665Z,63.80
2023-08-12T07:00:25.581Z,63.96
2023-08-12T07:01:28.471Z,63.87
2023-08-12T07:02:31.988Z,64.37
2023-08-12T07:03:35.411Z,63.78
2023-08-12T07:04:38.335Z,63.55
2023-08-12T07:05:41.192Z,63.60
2023-08-12T07:06:44.097Z,63.32
2023-08-12T07:07:47.013Z,62.97
2023-08-12T07:08:49.974Z,62.93
2023-08-12T07:09:52.971Z,62.62
2023-08-12T07:10:55.898Z,62.18
2023-08-12T07:11:58.809Z,62.12
2023-08-12T07:13:01.708Z,61.57
2023-08-12T07:14:04.559Z,61.75
2023-08-12T07:15:07.968Z,61.41
2023-08-12T07:16:10.987Z,60.70
2023-08-12T07:17:13.888Z,60.63
2023-08-12T07:18:16.835Z,60.14
2023-08-12T07:19:19.734Z,60.53
2023-08-12T07:20:22.624Z,60.99
2023-08-12T07:21:25.719Z,60.84
2023-08-12T07:22:28.650Z,60.49
2023-08-12T07:23:31.546Z,60.46
2023-08-12T07:24:34.415Z,58.48
2023-08-12T07:25:37.320Z,58.68
2023-08-12T07:26:40.236Z,57.79
2023-08-12T07:27:43.155Z,57.58
2023-08-12T07:28:46.108Z,56.66
2023-08-12T07:29:49.675Z,56.48
2023-08-12T07:30:52.675Z,56.38
2023-08-12T07:31:55.928Z,57.27
2023-08-12T07:32:58.822Z,58.17
2023-08-12T07:34:01.762Z,58.07
2023-08-12T07:35:04.945Z,58.45
2023-08-12T07:36:07.835Z,59.44
2023-08-12T07:37:10.729Z,60.32
2023-08-12T07:38:13.660Z,59.39
2023-08-12T07:39:16.722Z,59.78
2023-08-12T07:40:19.680Z,58.46
2023-08-12T07:41:22.652Z,58.35
2023-08-12T07:42:25.719Z,58.21
2023-08-12T07:43:28.716Z,57.95
2023-08-12T07:44:32.030Z,57.35
2023-08-12T07:45:35.265Z,57.10
2023-08-12T07:46:38.202Z,56.95
2023-08-12T07:47:41.295Z,57.62
2023-08-12T07:48:44.324Z,56.61
2023-08-12T07:49:47.316Z,58.05
2023-08-12T07:50:57.283Z,57.26
2023-08-12T07:52:00.282Z,56.36
2023-08-12T07:53:03.297Z,55.67
2023-08-12T07:54:06.463Z,55.54
2023-08-12T07:55:09.653Z,55.73
2023-08-12T07:56:12.738Z,53.80
2023-08-12T07:57:15.627Z,53.00
2023-08-12T07:58:18.580Z,54.59
2023-08-12T07:59:22.306Z,54.22
2023-08-12T08:00:25.187Z,53.96
2023-08-12T08:01:28.179Z,56.64
2023-08-12T08:02:31.109Z,56.24
2023-08-12T08:03:34.147Z,54.93
2023-08-12T08:04:37.039Z,55.57
2023-08-12T08:05:43.731Z,56.42
2023-08-12T08:06:48.558Z,55.07
2023-08-12T08:07:52.658Z,55.73
2023-08-12T08:08:55.907Z,55.12
2023-08-12T08:09:58.874Z,54.71
2023-08-12T08:11:01.802Z,54.69
2023-08-12T08:12:05.153Z,54.90
2023-08-12T08:13:08.056Z,54.03
2023-08-12T08:14:10.953Z,55.53
2023-08-12T08:15:13.877Z,55.58
2023-08-12T08:16:16.779Z,55.31
2023-08-12T08:17:20.126Z,54.99
2023-08-12T08:18:23.144Z,54.67
2023-08-12T08:19:29.846Z,52.95
2023-08-12T08:20:33.419Z,52.98
2023-08-12T08:21:36.993Z,53.41
2023-08-12T08:22:39.846Z,53.86
2023-08-12T08:23:44.006Z,54.34
2023-08-12T08:24:46.894Z,54.70
2023-08-12T08:25:50.033Z,55.04
2023-08-12T08:26:52.942Z,52.49
2023-08-12T08:27:55.857Z,50.77
2023-08-12T08:28:58.745Z,51.42
2023-08-12T08:30:01.627Z,51.61
2023-08-12T08:31:04.921Z,52.72
2023-08-12T08:32:08.572Z,50.20
2023-08-12T08:33:11.541Z,50.30
2023-08-12T08:34:14.420Z,49.82
2023-08-12T08:35:17.912Z,53.01
2023-08-12T08:36:24.008Z,53.02
2023-08-12T08:37:27.023Z,49.22
2023-08-12T08:38:29.897Z,47.78
2023-08-12T08:39:32.972Z,45.88
2023-08-12T08:40:36.202Z,47.00
2023-08-12T08:41:41.573Z,47.38
2023-08-12T08:42:46.380Z,48.40
2023-08-12T08:43:50.671Z,46.31
2023-08-12T08:44:58.075Z,46.21
2023-08-12T08:46:03.049Z,48.08
2023-08-12T08:47:08.759Z,46.36
2023-08-12T08:48:13.672Z,49.37
2023-08-12T08:49:17.497Z,48.10
2023-08-12T08:50:21.059Z,48.11
2023-08-12T08:51:24.068Z,47.99
2023-08-12T08:52:27.461Z,47.22
2023-08-12T08:53:30.883Z,48.22
2023-08-12T08:54:33.832Z,48.24
2023-08-12T08:55:36.794Z,47.71
2023-08-12T08:56:47.101Z,49.04
2023-08-12T08:58:02.283Z,45.45
2023-08-12T08:59:06.299Z,44.99
2023-08-12T09:01:24.656Z,42.97
2023-08-12T09:02:28.664Z,42.63
2023-08-12T09:03:32.321Z,47.65
2023-08-12T09:04:35.941Z,47.86
2023-08-12T09:05:40.782Z,44.57
2023-08-12T09:06:44.657Z,45.69
2023-08-12T09:07:48.556Z,44.55
2023-08-12T09:08:54.051Z,48.11
2023-08-12T09:09:58.980Z,47.87
2023-08-12T09:11:05.084Z,46.95
2023-08-12T09:12:09.241Z,47.37
2023-08-12T09:13:12.239Z,46.79
2023-08-12T09:14:15.868Z,45.00
2023-08-12T09:15:19.571Z,45.50
2023-08-12T09:16:22.707Z,44.19
2023-08-12T09:17:25.843Z,43.81
2023-08-12T09:18:28.910Z,42.11
2023-08-12T09:19:31.830Z,42.41
2023-08-12T09:20:36.160Z,43.99
2023-08-12T09:21:39.186Z,44.81
2023-08-12T09:22:45.402Z,44.95
2023-08-12T09:23:48.522Z,43.13
2023-08-12T09:24:52.983Z,42.60
2023-08-12T09:25:55.895Z,41.00
2023-08-12T09:26:59.361Z,41.17
2023-08-12T09:28:02.296Z,40.77
2023-08-12T09:29:05.582Z,42.19
2023-08-12T09:30:10.181Z,42.97
2023-08-12T09:31:33.690Z,43.80
2023-08-12T09:32:40.808Z,42.22
2023-08-12T09:33:43.721Z,43.76
2023-08-12T09:34:57.068Z,44.26
2023-08-12T09:36:00.046Z,44.43
2023-08-12T09:37:03.203Z,44.65
2023-08-12T09:38:13.833Z,45.05
2023-08-12T09:39:17.369Z,45.53
2023-08-12T09:40:20.264Z,45.36
2023-08-12T09:41:26.597Z,44.77
2023-08-12T09:42:30.689Z,45.39
2023-08-12T09:43:34.344Z,46.38
2023-08-12T09:44:38.616Z,45.62
2023-08-12T09:45:41.631Z,45.40
2023-08-12T09:46:44.832Z,45.58
2023-08-12T09:47:47.648Z,45.98
2023-08-12T09:48:52.364Z,45.48
2023-08-12T09:49:55.480Z,43.76
2023-08-12T09:50:58.931Z,43.02
2023-08-12T09:52:01.822Z,44.24
2023-08-12T09:53:07.494Z,43.67
2023-08-12T09:54:16.376Z,43.29
2023-08-12T09:55:21.987Z,42.44
2023-08-12T09:56:26.428Z,43.58
2023-08-12T09:57:34.372Z,43.85
2023-08-12T09:58:39.402Z,43.53
2023-08-12T09:59:43.938Z,42.83
2023-08-12T10:00:48.013Z,42.22
2023-08-12T10:01:55.486Z,43.09
2023-08-12T10:02:58.698Z,40.53
2023-08-12T10:04:02.369Z,40.32
2023-08-12T10:05:06.350Z,39.80
2023-08-12T10:06:10.749Z,40.62
2023-08-12T10:07:16.886Z,40.12
2023-08-12T10:08:21.081Z,41.46
2023-08-12T10:09:24.403Z,40.45
2023-08-12T10:10:28.083Z,41.89
2023-08-12T10:11:31.096Z,42.39
2023-08-12T10:12:34.530Z,41.01
2023-08-12T10:13:37.544Z,40.89
2023-08-12T10:14:41.083Z,41.78
2023-08-12T10:15:44.341Z,44.32
2023-08-12T10:16:49.238Z,43.83
2023-08-12T10:17:54.253Z,43.40
2023-08-12T10:18:59.597Z,41.98
2023-08-12T10:20:06.590Z,43.24
2023-08-12T10:21:13.894Z,42.93
2023-08-12T10:22:17.415Z,43.22
2023-08-12T10:23:21.257Z,42.94
2023-08-12T10:24:24.645Z,42.36
2023-08-12T10:25:32.521Z,42.02
2023-08-12T10:26:35.453Z,43.56
2023-08-12T10:27:39.687Z,44.26
2023-08-12T10:28:43.004Z,41.51
2023-08-12T10:29:46.090Z,40.62
2023-08-12T10:30:49.472Z,40.95
2023-08-12T10:31:52.908Z,41.06
2023-08-12T10:32:55.962Z,43.27
2023-08-12T10:34:02.046Z,42.90
2023-08-12T10:35:05.529Z,42.68
2023-08-12T10:36:09.486Z,43.18
2023-08-12T10:37:13.752Z,43.86
2023-08-12T10:38:20.397Z,44.51
2023-08-12T10:39:31.132Z,43.94
2023-08-12T10:40:34.164Z,43.50
2023-08-12T10:41:38.641Z,44.38
2023-08-12T10:42:50.857Z,42.94
2023-08-12T10:43:57.917Z,45.22
2023-08-12T10:45:00.990Z,46.52
2023-08-12T10:46:03.820Z,46.72
2023-08-12T10:47:11.385Z,44.68
2023-08-12T10:48:22.201Z,44.60
2023-08-12T10:49:25.186Z,45.09
2023-08-12T10:50:28.551Z,45.47
2023-08-12T10:51:45.028Z,44.77
2023-08-12T10:52:48.448Z,42.20
2023-08-12T10:53:52.471Z,43.42
2023-08-12T10:54:55.637Z,42.48
2023-08-12T10:56:00.715Z,41.52
2023-08-12T10:57:08.307Z,39.15
2023-08-12T10:58:11.369Z,39.46
2023-08-12T10:59:48.944Z,39.94
2023-08-12T11:00:55.853Z,39.45
2023-08-12T11:02:09.289Z,39.89
2023-08-12T11:03:12.197Z,41.09
2023-08-12T11:04:21.413Z,40.89
2023-08-12T11:05:25.242Z,40.03
2023-08-12T11:06:30.571Z,39.04
2023-08-12T11:07:42.253Z,39.69
2023-08-12T11:08:55.002Z,40.77
2023-08-12T11:10:07.042Z,40.64
2023-08-12T11:11:23.474Z,42.15
2023-08-12T11:12:37.231Z,42.74
2023-08-12T11:13:54.990Z,42.57
2023-08-12T11:15:01.631Z,44.46
2023-08-12T11:16:12.372Z,44.92
2023-08-12T11:17:18.338Z,43.57
2023-08-12T11:18:22.823Z,43.50
2023-08-12T11:19:25.875Z,43.97
2023-08-12T11:20:31.881Z,44.31
2023-08-12T11:21:38.740Z,44.35
2023-08-12T11:22:46.506Z,44.54
2023-08-12T11:23:49.725Z,44.52
2023-08-12T11:24:53.378Z,44.68
2023-08-12T11:25:56.320Z,44.04
2023-08-12T11:26:59.312Z,44.50
2023-08-12T11:28:02.556Z,44.90
2023-08-12T11:29:11.538Z,44.67
2023-08-12T11:30:17.864Z,44.07
2023-08-12T11:31:21.204Z,44.31
2023-08-12T11:32:24.306Z,45.60
2023-08-12T11:33:27.252Z,45.18
2023-08-12T11:34:30.148Z,46.09
2023-08-12T11:35:33.136Z,43.08
2023-08-12T11:36:36.260Z,44.54
2023-08-12T11:37:43.419Z,44.72
2023-08-12T11:38:46.409Z,43.46
2023-08-12T11:39:49.413Z,39.58
2023-08-12T11:40:52.776Z,38.97
2023-08-12T11:41:55.601Z,40.44
2023-08-12T11:42:58.766Z,44.77
2023-08-12T11:44:01.862Z,45.02
2023-08-12T11:45:06.321Z,43.69
2023-08-12T11:46:09.271Z,43.38
2023-08-12T11:47:12.174Z,43.44
2023-08-12T11:48:15.236Z,44.07
2023-08-12T11:49:18.298Z,42.68
2023-08-12T11:50:22.959Z,40.21
2023-08-12T11:51:26.076Z,41.92
2023-08-12T11:52:29.234Z,44.34
2023-08-12T11:53:32.319Z,44.43
2023-08-12T11:54:35.324Z,41.32
2023-08-12T11:55:38.265Z,42.19
2023-08-12T11:56:41.373Z,40.91
2023-08-12T11:57:46.212Z,42.12
2023-08-12T11:58:53.909Z,42.70
2023-08-12T12:00:06.878Z,38.79
2023-08-12T12:01:09.825Z,40.37
2023-08-12T12:02:15.462Z,39.14
2023-08-12T12:03:20.287Z,39.97
2023-08-12T12:04:24.118Z,40.75
2023-08-12T12:05:32.585Z,42.21
2023-08-12T12:06:38.930Z,41.89
2023-08-12T12:07:42.057Z,40.44
2023-08-12T12:08:47.349Z,40.24
2023-08-12T12:09:53.674Z,41.62
2023-08-12T12:10:57.316Z,41.60
2023-08-12T12:12:00.185Z,40.85
2023-08-12T12:13:05.120Z,40.55
2023-08-12T12:14:12.740Z,41.15
2023-08-12T12:15:19.662Z,41.52
2023-08-12T12:16:22.550Z,41.30
2023-08-12T12:17:26.150Z,41.27
2023-08-12T12:18:29.125Z,42.34
2023-08-12T12:19:32.040Z,42.06
2023-08-12T12:20:34.999Z,40.27
2023-08-12T12:21:43.080Z,39.54
2023-08-12T12:22:47.601Z,40.59
2023-08-12T12:23:54.786Z,40.09
2023-08-12T12:25:00.704Z,38.56
2023-08-12T12:26:05.169Z,39.25
2023-08-12T12:27:08.295Z,40.99
2023-08-12T12:28:11.985Z,41.73
2023-08-12T12:29:15.997Z,40.01
2023-08-12T12:30:19.623Z,39.88
2023-08-12T12:31:22.579Z,38.47
2023-08-12T12:32:25.597Z,39.05
2023-08-12T12:33:29.490Z,40.30
2023-08-12T12:34:32.778Z,39.46
2023-08-12T12:35:44.015Z,39.59
2023-08-12T12:36:54.744Z,38.12
2023-08-12T12:37:57.846Z,39.31
2023-08-12T12:39:00.794Z,39.96
2023-08-12T12:40:05.467Z,39.61
2023-08-12T12:41:08.276Z,40.42
2023-08-12T12:42:11.672Z,40.57
2023-08-12T12:43:14.822Z,38.78
2023-08-12T12:44:17.747Z,37.46
2023-08-12T12:45:20.642Z,38.29
2023-08-12T12:46:23.719Z,40.30
2023-08-12T12:47:26.648Z,41.27
2023-08-12T12:48:29.594Z,41.11
2023-08-12T12:49:32.599Z,41.43
2023-08-12T12:50:35.435Z,42.36
2023-08-12T12:51:38.393Z,42.57
2023-08-12T12:52:42.611Z,42.07
2023-08-12T12:53:47.601Z,39.49
2023-08-12T12:54:50.474Z,37.76
2023-08-12T12:55:53.481Z,38.04
2023-08-12T12:56:56.404Z,39.14
2023-08-12T12:57:59.262Z,40.52
2023-08-12T12:59:02.192Z,40.36
2023-08-12T13:00:06.777Z,39.24
2023-08-12T13:01:09.808Z,39.77
2023-08-12T13:02:13.052Z,41.37
2023-08-12T13:03:16.236Z,41.72
2023-08-12T13:04:19.103Z,41.80
2023-08-12T13:05:22.013Z,43.03
2023-08-12T13:06:24.849Z,42.61
2023-08-12T13:07:27.704Z,39.79
2023-08-12T13:08:33.443Z,40.93
2023-08-12T13:09:36.401Z,38.11
2023-08-12T13:10:39.346Z,38.12
2023-08-12T13:11:42.237Z,37.87
2023-08-12T13:12:45.230Z,38.29
2023-08-12T13:13:48.152Z,39.06
2023-08-12T13:14:51.050Z,38.85
2023-08-12T13:15:54.207Z,38.47
2023-08-12T13:16:57.269Z,38.41
2023-08-12T13:18:00.304Z,38.72
2023-08-12T13:19:03.302Z,39.39
2023-08-12T13:20:07.852Z,39.45
2023-08-12T13:21:10.759Z,40.21
2023-08-12T13:22:13.808Z,39.87
2023-08-12T13:23:17.546Z,39.78
2023-08-12T13:24:20.556Z,38.85
2023-08-12T13:25:23.736Z,41.92
2023-08-12T13:26:26.685Z,41.63
2023-08-12T13:27:29.602Z,40.49
2023-08-12T13:28:32.529Z,40.81
2023-08-12T13:29:35.414Z,40.36
2023-08-12T13:30:38.348Z,42.82
2023-08-12T13:31:42.515Z,42.27
2023-08-12T13:32:45.468Z,41.63
2023-08-12T13:33:48.320Z,41.17
2023-08-12T13:34:51.354Z,41.76
2023-08-12T13:35:54.274Z,41.24
2023-08-12T13:36:57.324Z,40.76
2023-08-12T13:38:00.307Z,42.12
2023-08-12T13:39:03.188Z,42.48
2023-08-12T13:40:06.734Z,40.68
2023-08-12T13:41:09.769Z,40.58
2023-08-12T13:42:12.722Z,41.52
2023-08-12T13:43:15.856Z,41.26
2023-08-12T13:44:18.795Z,41.07
2023-08-12T13:45:22.478Z,40.68